createdAt,value
2017-09-26T00:01:57.410Z,15.25
2017-09-26T00:04:25.039Z,15.22
2017-09-26T00:06:52.635Z,15.22
2017-09-26T00:09:20.259Z,15.18
2017-09-26T00:11:48.032Z,15.09
2017-09-26T00:14:15.671Z,14.94
2017-09-26T00:16:43.294Z,14.82
2017-09-26T00:19:10.894Z,14.82
2017-09-26T00:21:38.528Z,14.83
2017-09-26T00:24:06.181Z,14.86
2017-09-26T00:26:33.814Z,14.87
2017-09-26T00:29:01.400Z,14.89
2017-09-26T00:31:29.053Z,14.88
2017-09-26T00:33:56.771Z,14.84
2017-09-26T00:36:24.423Z,14.85
2017-09-26T00:38:52.534Z,14.82
2017-09-26T00:41:20.177Z,14.81
2017-09-26T00:43:47.744Z,14.80
2017-09-26T00:46:15.353Z,14.82
2017-09-26T00:48:42.963Z,14.84
2017-09-26T00:51:10.606Z,14.83
2017-09-26T00:53:38.288Z,14.86
2017-09-26T00:56:05.951Z,14.91
2017-09-26T00:58:33.547Z,14.93
2017-09-26T01:01:01.206Z,14.91
2017-09-26T01:03:30.752Z,14.87
2017-09-26T01:06:03.889Z,14.86
2017-09-26T01:08:31.484Z,14.88
2017-09-26T01:10:59.104Z,14.93
2017-09-26T01:13:26.696Z,14.96
2017-09-26T01:15:54.318Z,15.01
2017-09-26T01:18:21.917Z,14.98
2017-09-26T01:20:49.510Z,14.94
2017-09-26T01:23:17.111Z,14.95
2017-09-26T01:25:44.739Z,14.92
2017-09-26T01:28:12.344Z,14.90
2017-09-26T01:30:39.987Z,14.86
2017-09-26T01:33:07.575Z,14.83
2017-09-26T01:35:35.182Z,14.85
2017-09-26T01:38:04.051Z,14.89
2017-09-26T01:40:43.277Z,14.92
2017-09-26T01:43:10.878Z,14.93
2017-09-26T01:45:38.503Z,14.97
2017-09-26T01:48:06.087Z,14.99
2017-09-26T01:50:34.627Z,15.00
2017-09-26T01:53:02.288Z,14.99
2017-09-26T01:55:29.910Z,14.98
2017-09-26T01:57:57.491Z,14.99
2017-09-26T02:00:25.106Z,15.04
2017-09-26T02:02:52.709Z,14.99
2017-09-26T02:05:20.349Z,14.96
2017-09-26T02:07:47.946Z,14.95
2017-09-26T02:10:15.571Z,14.88
2017-09-26T02:12:43.164Z,14.91
2017-09-26T02:15:10.802Z,14.95
2017-09-26T02:17:38.403Z,14.95
2017-09-26T02:20:06.054Z,14.98
2017-09-26T02:22:33.645Z,14.99
2017-09-26T02:25:01.266Z,14.93
2017-09-26T02:27:28.854Z,14.94
2017-09-26T02:29:56.506Z,14.91
2017-09-26T02:32:24.095Z,14.89
2017-09-26T02:34:51.781Z,14.89
2017-09-26T02:37:19.368Z,14.90
2017-09-26T02:39:46.982Z,14.89
2017-09-26T02:42:14.602Z,14.88
2017-09-26T02:44:42.227Z,14.88
2017-09-26T02:47:09.810Z,14.83
2017-09-26T02:49:37.432Z,14.77
2017-09-26T02:52:05.050Z,14.75
2017-09-26T02:54:32.661Z,14.79
2017-09-26T02:57:00.285Z,14.84
2017-09-26T02:59:27.905Z,14.90
2017-09-26T03:01:55.569Z,14.94
2017-09-26T03:04:23.151Z,14.97
2017-09-26T03:06:50.767Z,15.03
2017-09-26T03:09:18.352Z,15.03
2017-09-26T03:11:45.966Z,15.08
2017-09-26T03:14:13.563Z,15.08
2017-09-26T03:16:41.198Z,15.09
2017-09-26T03:19:08.791Z,15.07
2017-09-26T03:21:36.556Z,15.05
2017-09-26T03:24:04.148Z,15.02
2017-09-26T03:26:31.778Z,15.00
2017-09-26T03:28:59.373Z,14.99
2017-09-26T03:31:27.043Z,15.01
2017-09-26T03:33:54.631Z,15.02
2017-09-26T03:36:22.250Z,15.04
2017-09-26T03:38:49.841Z,15.08
2017-09-26T03:41:17.466Z,15.12
2017-09-26T03:43:45.066Z,15.11
2017-09-26T03:46:12.669Z,15.06
2017-09-26T03:48:40.300Z,15.08
2017-09-26T03:51:07.896Z,14.92
2017-09-26T03:53:35.527Z,14.78
2017-09-26T03:56:03.124Z,14.69
2017-09-26T03:58:30.736Z,14.68
2017-09-26T04:00:58.416Z,14.65
2017-09-26T04:03:26.031Z,14.61
2017-09-26T04:05:53.633Z,14.65
2017-09-26T04:08:22.083Z,14.72
2017-09-26T04:10:49.702Z,14.75
2017-09-26T04:13:17.459Z,14.79
2017-09-26T04:15:45.057Z,14.80
2017-09-26T04:18:12.691Z,14.80
2017-09-26T04:20:40.292Z,14.77
2017-09-26T04:23:07.984Z,14.82
2017-09-26T04:25:35.916Z,14.84
2017-09-26T04:28:03.543Z,14.87
2017-09-26T04:30:31.150Z,14.89
2017-09-26T04:32:58.760Z,14.92
2017-09-26T04:35:26.455Z,14.96
2017-09-26T04:37:54.060Z,15.01
2017-09-26T04:40:21.709Z,15.09
2017-09-26T04:42:49.326Z,15.11
2017-09-26T04:45:16.947Z,15.06
2017-09-26T04:47:44.534Z,15.00
2017-09-26T04:50:12.135Z,14.94
2017-09-26T04:52:39.734Z,14.92
2017-09-26T04:55:07.363Z,14.92
2017-09-26T04:57:35.028Z,14.91
2017-09-26T05:00:02.651Z,14.93
2017-09-26T05:02:30.305Z,14.97
2017-09-26T05:04:58.029Z,15.00
2017-09-26T05:07:25.638Z,15.00
2017-09-26T05:09:53.255Z,15.00
2017-09-26T05:12:20.863Z,15.01
2017-09-26T05:14:48.609Z,14.98
2017-09-26T05:17:16.350Z,14.97
2017-09-26T05:19:44.043Z,14.96
2017-09-26T05:22:11.802Z,14.94
2017-09-26T05:24:39.679Z,14.95
2017-09-26T05:27:08.489Z,14.99
2017-09-26T05:29:36.155Z,14.97
2017-09-26T05:32:03.783Z,14.94
2017-09-26T05:34:31.437Z,14.97
2017-09-26T05:36:59.050Z,14.98
2017-09-26T05:39:26.675Z,14.97
2017-09-26T05:41:54.279Z,14.99
2017-09-26T05:44:21.919Z,15.00
2017-09-26T05:46:49.521Z,14.99
2017-09-26T05:49:17.156Z,14.99
2017-09-26T05:51:44.763Z,14.99
2017-09-26T05:54:12.430Z,14.96
2017-09-26T05:56:40.024Z,14.91
2017-09-26T05:59:07.654Z,14.96
2017-09-26T06:01:35.284Z,14.95
2017-09-26T06:04:02.942Z,14.97
2017-09-26T06:06:30.554Z,15.01
2017-09-26T06:08:58.216Z,15.08
2017-09-26T06:11:26.061Z,15.11
2017-09-26T06:13:53.990Z,15.15
2017-09-26T06:16:21.841Z,15.16
2017-09-26T06:18:49.804Z,15.18
2017-09-26T06:21:18.699Z,15.16
2017-09-26T06:23:46.667Z,15.08
2017-09-26T06:26:14.441Z,15.04
2017-09-26T06:28:42.228Z,15.04
2017-09-26T06:31:10.200Z,15.07
2017-09-26T06:33:38.233Z,15.16
2017-09-26T06:36:06.816Z,15.25
2017-09-26T06:38:34.618Z,15.30
2017-09-26T06:41:02.652Z,15.31
2017-09-26T06:43:30.518Z,15.33
2017-09-26T06:45:58.584Z,15.32
2017-09-26T06:48:26.535Z,15.32
2017-09-26T06:50:54.129Z,15.33
2017-09-26T06:53:21.775Z,15.36
2017-09-26T06:55:49.374Z,15.38
2017-09-26T06:58:17.121Z,15.42
2017-09-26T07:00:44.715Z,15.44
2017-09-26T07:03:12.462Z,15.46
2017-09-26T07:05:40.119Z,15.46
2017-09-26T07:08:07.731Z,15.50
2017-09-26T07:10:35.379Z,15.55
2017-09-26T07:13:03.000Z,15.54
2017-09-26T07:15:30.645Z,15.55
2017-09-26T07:17:58.341Z,15.59
2017-09-26T07:20:25.971Z,15.67
2017-09-26T07:22:53.570Z,15.74
2017-09-26T07:25:21.207Z,15.82
2017-09-26T07:27:48.812Z,15.87
2017-09-26T07:30:16.478Z,15.90
2017-09-26T07:32:44.096Z,15.96
2017-09-26T07:35:11.725Z,16.02
2017-09-26T07:37:39.323Z,16.06
2017-09-26T07:40:06.950Z,16.13
2017-09-26T07:42:34.584Z,16.19
2017-09-26T07:45:02.229Z,16.21
2017-09-26T07:47:29.831Z,16.28
2017-09-26T07:49:57.450Z,16.35
2017-09-26T07:52:25.048Z,16.41
2017-09-26T07:54:52.690Z,16.48
2017-09-26T07:57:20.300Z,16.50
2017-09-26T07:59:47.998Z,16.58
2017-09-26T08:02:15.907Z,16.65
2017-09-26T08:04:43.891Z,16.71
2017-09-26T08:07:11.835Z,16.73
2017-09-26T08:09:39.949Z,16.75
2017-09-26T08:12:07.547Z,16.77
2017-09-26T08:14:35.158Z,16.83
2017-09-26T08:17:02.799Z,16.88
2017-09-26T08:19:30.402Z,16.91
2017-09-26T08:21:58.042Z,16.96
2017-09-26T08:24:25.762Z,16.97
2017-09-26T08:26:53.382Z,16.98
2017-09-26T08:29:20.990Z,17.02
2017-09-26T08:31:48.723Z,17.05
2017-09-26T08:34:16.397Z,17.10
2017-09-26T08:36:44.055Z,17.16
2017-09-26T08:39:11.658Z,17.18
2017-09-26T08:41:39.434Z,17.28
2017-09-26T08:44:07.051Z,17.31
2017-09-26T08:46:34.742Z,17.34
2017-09-26T08:49:02.391Z,17.42
2017-09-26T08:51:29.992Z,17.49
2017-09-26T08:53:57.636Z,17.52
2017-09-26T08:56:25.287Z,17.55
2017-09-26T08:58:52.914Z,17.66
2017-09-26T09:01:20.566Z,17.73
2017-09-26T09:03:48.196Z,17.80
2017-09-26T09:06:15.817Z,17.85
2017-09-26T09:08:43.454Z,17.93
2017-09-26T09:11:11.062Z,18.04
2017-09-26T09:13:38.695Z,18.20
2017-09-26T09:16:06.382Z,18.34
2017-09-26T09:18:34.041Z,18.26
2017-09-26T09:21:01.630Z,18.30
2017-09-26T09:23:29.278Z,18.39
2017-09-26T09:25:56.893Z,18.45
2017-09-26T09:28:24.642Z,18.59
2017-09-26T09:30:52.239Z,18.72
2017-09-26T09:33:19.883Z,18.84
2017-09-26T09:35:47.495Z,18.98
2017-09-26T09:38:15.160Z,19.10
2017-09-26T09:40:42.774Z,19.08
2017-09-26T09:43:10.412Z,19.21
2017-09-26T09:45:38.006Z,19.43
2017-09-26T09:48:05.632Z,19.50
2017-09-26T09:50:33.261Z,19.63
2017-09-26T09:53:00.883Z,19.74
2017-09-26T09:55:28.503Z,19.73
2017-09-26T09:57:56.175Z,19.97
2017-09-26T10:00:23.774Z,20.04
2017-09-26T10:02:51.403Z,20.02
2017-09-26T10:05:19.018Z,20.10
2017-09-26T10:07:46.658Z,19.92
2017-09-26T10:10:14.323Z,20.18
2017-09-26T10:12:41.970Z,20.39
2017-09-26T10:15:09.591Z,20.56
2017-09-26T10:17:37.223Z,20.83
2017-09-26T10:20:04.826Z,20.94
2017-09-26T10:22:32.469Z,21.14
2017-09-26T10:25:00.077Z,21.46
2017-09-26T10:27:27.723Z,21.41
2017-09-26T10:29:55.329Z,21.50
2017-09-26T10:32:22.920Z,21.60
2017-09-26T10:34:50.554Z,21.18
2017-09-26T10:37:18.161Z,20.91
2017-09-26T10:39:45.786Z,20.43
2017-09-26T10:42:13.396Z,20.11
2017-09-26T10:44:41.024Z,19.85
2017-09-26T10:47:08.619Z,19.75
2017-09-26T10:49:36.294Z,19.80
2017-09-26T10:52:03.882Z,19.96
2017-09-26T10:54:31.511Z,19.96
2017-09-26T10:56:59.122Z,19.90
2017-09-26T10:59:26.738Z,19.84
2017-09-26T11:01:54.327Z,19.89
2017-09-26T11:04:21.964Z,19.94
2017-09-26T11:06:49.554Z,19.94
2017-09-26T11:09:17.170Z,19.96
2017-09-26T11:11:44.774Z,19.92
2017-09-26T11:14:12.401Z,19.90
2017-09-26T11:16:40.002Z,19.91
2017-09-26T11:19:07.622Z,19.88
2017-09-26T11:21:35.240Z,19.89
2017-09-26T11:24:02.851Z,19.93
2017-09-26T11:26:30.498Z,20.02
2017-09-26T11:28:58.146Z,20.10
2017-09-26T11:31:25.788Z,20.12
2017-09-26T11:33:53.402Z,20.11
2017-09-26T11:36:21.016Z,20.07
2017-09-26T11:38:48.647Z,20.10
2017-09-26T11:41:16.289Z,20.12
2017-09-26T11:43:43.894Z,20.67
2017-09-26T11:46:11.521Z,21.04
2017-09-26T11:48:39.128Z,21.03
2017-09-26T11:51:06.781Z,21.03
2017-09-26T11:53:34.375Z,21.17
2017-09-26T11:56:02.001Z,21.22
2017-09-26T11:58:29.668Z,21.42
2017-09-26T12:00:57.307Z,21.82
2017-09-26T12:03:24.910Z,21.78
2017-09-26T12:05:52.533Z,21.47
2017-09-26T12:08:20.151Z,21.22
2017-09-26T12:10:47.863Z,21.06
2017-09-26T12:13:21.077Z,20.81
2017-09-26T12:15:48.707Z,20.46
2017-09-26T12:18:16.290Z,20.31
2017-09-26T12:20:43.949Z,20.24
2017-09-26T12:23:11.557Z,20.26
2017-09-26T12:25:39.214Z,20.23
2017-09-26T12:28:06.808Z,20.19
2017-09-26T12:30:34.416Z,20.18
2017-09-26T12:33:02.035Z,20.17
2017-09-26T12:35:29.662Z,20.18
2017-09-26T12:37:57.267Z,20.16
2017-09-26T12:40:24.891Z,20.13
2017-09-26T12:42:52.498Z,20.13
2017-09-26T12:45:20.103Z,20.12
2017-09-26T12:47:47.735Z,20.11
2017-09-26T12:50:15.358Z,20.10
2017-09-26T12:52:43.018Z,20.08
2017-09-26T12:55:10.631Z,20.08
2017-09-26T12:57:38.264Z,20.03
2017-09-26T13:00:05.859Z,19.92
2017-09-26T13:02:33.494Z,19.88
2017-09-26T13:05:01.246Z,19.86
2017-09-26T13:07:28.886Z,19.81
2017-09-26T13:09:56.506Z,19.80
2017-09-26T13:12:24.158Z,19.85
2017-09-26T13:14:51.772Z,19.87
2017-09-26T13:17:19.400Z,19.85
2017-09-26T13:19:46.998Z,19.73
2017-09-26T13:22:14.646Z,19.46
2017-09-26T13:24:42.253Z,19.33
2017-09-26T13:27:09.859Z,19.18
2017-09-26T13:29:37.492Z,19.19
2017-09-26T13:32:05.098Z,19.25
2017-09-26T13:34:32.778Z,19.25
2017-09-26T13:37:00.374Z,19.24
2017-09-26T13:39:27.998Z,19.24
2017-09-26T13:41:55.603Z,19.25
2017-09-26T13:44:23.247Z,19.20
2017-09-26T13:46:50.874Z,19.11
2017-09-26T13:49:18.522Z,19.08
2017-09-26T13:51:46.167Z,19.03
2017-09-26T13:54:13.823Z,18.96
2017-09-26T13:56:41.426Z,18.85
2017-09-26T13:59:09.054Z,18.84
2017-09-26T14:01:36.665Z,18.85
2017-09-26T14:04:04.392Z,18.84
2017-09-26T14:06:32.008Z,18.83
2017-09-26T14:08:59.628Z,18.86
2017-09-26T14:11:27.337Z,18.89
2017-09-26T14:13:55.004Z,18.82
2017-09-26T14:16:22.556Z,18.83
2017-09-26T14:18:50.154Z,18.83
2017-09-26T14:21:17.808Z,18.85
2017-09-26T14:23:45.453Z,18.86
2017-09-26T14:26:13.071Z,18.89
2017-09-26T14:28:40.674Z,18.81
2017-09-26T14:31:08.342Z,18.81
2017-09-26T14:33:35.956Z,18.71
2017-09-26T14:36:03.575Z,18.72
2017-09-26T14:38:31.199Z,18.73
2017-09-26T14:40:58.921Z,18.77
2017-09-26T14:43:26.540Z,18.78
2017-09-26T14:45:54.190Z,18.87
2017-09-26T14:48:21.860Z,18.78
2017-09-26T14:50:49.470Z,18.90
2017-09-26T14:53:17.073Z,19.10
2017-09-26T14:55:44.704Z,19.65
2017-09-26T14:58:12.314Z,20.31
2017-09-26T15:00:39.994Z,20.97
2017-09-26T15:03:08.028Z,21.51
2017-09-26T15:05:35.625Z,22.14
2017-09-26T15:08:03.386Z,22.63
2017-09-26T15:10:31.086Z,22.95
2017-09-26T15:12:58.702Z,23.23
2017-09-26T15:15:26.310Z,23.58
2017-09-26T15:17:53.958Z,23.91
2017-09-26T15:20:21.572Z,24.19
2017-09-26T15:22:49.205Z,24.29
2017-09-26T15:25:16.815Z,24.25
2017-09-26T15:27:44.441Z,24.10
2017-09-26T15:30:12.070Z,23.81
2017-09-26T15:32:39.682Z,23.65
2017-09-26T15:35:07.303Z,23.36
2017-09-26T15:37:34.947Z,23.20
2017-09-26T15:40:02.594Z,22.96
2017-09-26T15:42:30.187Z,22.67
2017-09-26T15:44:57.813Z,22.16
2017-09-26T15:47:25.411Z,21.51
2017-09-26T15:49:53.039Z,21.08
2017-09-26T15:52:20.662Z,20.70
2017-09-26T15:54:48.314Z,20.36
2017-09-26T15:57:15.927Z,20.21
2017-09-26T15:59:43.521Z,20.10
2017-09-26T16:02:11.143Z,20.00
2017-09-26T16:04:38.740Z,19.83
2017-09-26T16:07:06.430Z,19.73
2017-09-26T16:09:34.031Z,19.71
2017-09-26T16:12:01.677Z,19.68
2017-09-26T16:14:29.323Z,19.72
2017-09-26T16:16:57.108Z,19.85
2017-09-26T16:19:24.718Z,19.77
2017-09-26T16:21:52.348Z,19.76
2017-09-26T16:24:20.011Z,19.77
2017-09-26T16:26:47.660Z,19.65
2017-09-26T16:29:15.287Z,19.59
2017-09-26T16:31:42.879Z,19.27
2017-09-26T16:34:10.507Z,18.88
2017-09-26T16:36:38.096Z,18.68
2017-09-26T16:39:05.734Z,18.65
2017-09-26T16:41:33.355Z,18.68
2017-09-26T16:44:00.952Z,18.63
2017-09-26T16:46:28.635Z,18.54
2017-09-26T16:48:56.230Z,18.45
2017-09-26T16:51:23.864Z,18.33
2017-09-26T16:53:51.513Z,18.30
2017-09-26T16:56:19.156Z,18.29
2017-09-26T16:58:46.814Z,18.23
2017-09-26T17:01:14.441Z,18.21
2017-09-26T17:03:42.035Z,18.15
2017-09-26T17:06:09.666Z,18.10
2017-09-26T17:08:37.363Z,18.14
2017-09-26T17:11:04.983Z,18.28
2017-09-26T17:13:32.578Z,18.36
2017-09-26T17:16:00.262Z,18.43
2017-09-26T17:18:27.881Z,18.45
2017-09-26T17:20:55.519Z,18.45
2017-09-26T17:23:23.127Z,18.47
2017-09-26T17:25:50.827Z,18.41
2017-09-26T17:28:18.971Z,18.35
2017-09-26T17:30:46.624Z,18.30
2017-09-26T17:33:14.235Z,18.24
2017-09-26T17:35:41.945Z,18.19
2017-09-26T17:38:09.616Z,18.19
2017-09-26T17:40:37.322Z,18.18
2017-09-26T17:43:04.931Z,18.15
2017-09-26T17:45:32.569Z,18.18
2017-09-26T17:48:00.263Z,18.17
2017-09-26T17:50:27.854Z,18.13
2017-09-26T17:52:55.519Z,18.07
2017-09-26T17:55:23.175Z,17.94
2017-09-26T17:57:50.818Z,17.86
2017-09-26T18:00:18.537Z,17.87
2017-09-26T18:02:46.183Z,17.76
2017-09-26T18:05:13.787Z,17.70
2017-09-26T18:07:41.452Z,17.66
2017-09-26T18:10:09.071Z,17.69
2017-09-26T18:12:36.713Z,17.71
2017-09-26T18:15:04.342Z,17.56
2017-09-26T18:17:32.734Z,17.35
2017-09-26T18:20:00.688Z,17.24
2017-09-26T18:22:28.355Z,17.25
2017-09-26T18:24:55.946Z,17.34
2017-09-26T18:27:23.601Z,17.23
2017-09-26T18:29:51.212Z,17.06
2017-09-26T18:32:18.867Z,16.96
2017-09-26T18:34:46.463Z,16.97
2017-09-26T18:37:14.088Z,17.00
2017-09-26T18:39:41.764Z,16.95
2017-09-26T18:42:09.455Z,16.86
2017-09-26T18:44:37.598Z,16.70
2017-09-26T18:47:05.963Z,16.53
2017-09-26T18:49:33.766Z,16.38
2017-09-26T18:52:01.494Z,16.36
2017-09-26T18:54:29.231Z,16.28
2017-09-26T18:56:56.858Z,16.34
2017-09-26T18:59:25.267Z,16.48
2017-09-26T19:01:52.929Z,16.58
2017-09-26T19:04:20.631Z,16.68
2017-09-26T19:06:49.485Z,16.71
2017-09-26T19:09:17.139Z,16.68
2017-09-26T19:11:47.870Z,16.64
2017-09-26T19:14:16.552Z,16.65
2017-09-26T19:16:45.242Z,16.68
2017-09-26T19:19:13.722Z,16.70
2017-09-26T19:21:41.318Z,16.76
2017-09-26T19:24:08.951Z,16.81
2017-09-26T19:26:36.585Z,16.86
2017-09-26T19:29:04.220Z,16.86
2017-09-26T19:31:31.825Z,16.85
2017-09-26T19:33:59.615Z,16.87
2017-09-26T19:36:27.239Z,16.89
2017-09-26T19:38:54.898Z,16.90
2017-09-26T19:41:22.505Z,16.90
2017-09-26T19:43:50.255Z,16.90
2017-09-26T19:46:17.888Z,16.89
2017-09-26T19:48:45.587Z,16.84
2017-09-26T19:51:13.189Z,16.81
2017-09-26T19:53:40.830Z,16.80
2017-09-26T19:56:08.518Z,16.76
2017-09-26T19:58:36.167Z,16.72
2017-09-26T20:01:03.766Z,16.70
2017-09-26T20:03:31.442Z,16.65
2017-09-26T20:05:59.151Z,16.63
2017-09-26T20:08:26.954Z,16.57
2017-09-26T20:10:54.573Z,16.53
2017-09-26T20:13:22.947Z,16.51
2017-09-26T20:15:50.602Z,16.50
2017-09-26T20:18:18.427Z,16.48
2017-09-26T20:20:46.691Z,16.49
2017-09-26T20:23:14.343Z,16.47
2017-09-26T20:25:42.119Z,16.43
2017-09-26T20:28:11.157Z,16.39
2017-09-26T20:30:38.776Z,16.39
2017-09-26T20:33:09.397Z,16.36
2017-09-26T20:35:36.983Z,16.38
2017-09-26T20:38:04.642Z,16.39
2017-09-26T20:40:32.278Z,16.41
2017-09-26T20:42:59.926Z,16.35
2017-09-26T20:45:28.403Z,16.27
2017-09-26T20:47:56.055Z,16.14
2017-09-26T20:50:23.659Z,16.08
2017-09-26T20:52:52.011Z,16.04
2017-09-26T20:55:19.642Z,15.98
2017-09-26T20:57:47.388Z,15.93
2017-09-26T21:00:15.043Z,15.78
2017-09-26T21:02:42.655Z,15.45
2017-09-26T21:05:10.337Z,15.25
2017-09-26T21:07:37.950Z,15.04
2017-09-26T21:10:09.021Z,14.84
2017-09-26T21:12:36.624Z,14.84
2017-09-26T21:15:04.267Z,14.87
2017-09-26T21:17:31.904Z,14.84
2017-09-26T21:19:59.532Z,14.88
2017-09-26T21:22:27.175Z,15.04
2017-09-26T21:24:54.852Z,15.22
2017-09-26T21:27:22.459Z,15.32
2017-09-26T21:29:50.094Z,15.34
2017-09-26T21:32:17.866Z,15.35
2017-09-26T21:34:45.467Z,15.41
2017-09-26T21:37:13.819Z,15.42
2017-09-26T21:39:41.411Z,15.47
2017-09-26T21:42:09.056Z,15.53
2017-09-26T21:44:36.653Z,15.54
2017-09-26T21:47:04.263Z,15.51
2017-09-26T21:49:31.858Z,15.46
2017-09-26T21:51:59.505Z,15.43
2017-09-26T21:54:27.101Z,15.41
2017-09-26T21:56:54.725Z,15.36
2017-09-26T21:59:22.369Z,15.33
2017-09-26T22:01:50.015Z,15.28
2017-09-26T22:04:17.603Z,15.28
2017-09-26T22:06:45.223Z,15.25
2017-09-26T22:09:12.852Z,15.27
2017-09-26T22:11:40.522Z,15.29
2017-09-26T22:14:08.120Z,15.26
2017-09-26T22:16:35.726Z,15.31
2017-09-26T22:19:03.383Z,15.33
2017-09-26T22:21:31.192Z,15.20
2017-09-26T22:23:58.788Z,15.12
2017-09-26T22:26:26.440Z,15.18
2017-09-26T22:28:54.038Z,15.23
2017-09-26T22:31:21.707Z,15.26
2017-09-26T22:33:49.303Z,15.31
2017-09-26T22:36:16.897Z,15.31
2017-09-26T22:38:44.519Z,15.37
2017-09-26T22:41:12.112Z,15.35
2017-09-26T22:43:39.741Z,15.33
2017-09-26T22:46:07.336Z,15.28
2017-09-26T22:48:34.950Z,15.29
2017-09-26T22:51:02.624Z,15.30
2017-09-26T22:53:30.254Z,15.37
2017-09-26T22:55:57.875Z,15.40
2017-09-26T22:58:25.670Z,15.36
2017-09-26T23:00:53.271Z,15.36
2017-09-26T23:03:20.918Z,15.38
2017-09-26T23:05:48.818Z,15.36
2017-09-26T23:08:18.116Z,15.39
2017-09-26T23:10:46.621Z,15.45
2017-09-26T23:13:14.234Z,15.45
2017-09-26T23:15:41.859Z,15.47
2017-09-26T23:18:09.610Z,15.44
2017-09-26T23:20:37.233Z,15.44
2017-09-26T23:23:04.818Z,15.44
2017-09-26T23:25:32.448Z,15.50
2017-09-26T23:28:00.030Z,15.48
2017-09-26T23:30:27.662Z,15.48
2017-09-26T23:32:55.278Z,15.50
2017-09-26T23:35:22.918Z,15.41
2017-09-26T23:37:50.516Z,15.33
2017-09-26T23:40:18.114Z,15.23
2017-09-26T23:42:45.755Z,15.11
2017-09-26T23:45:13.505Z,14.99
2017-09-26T23:47:41.105Z,15.02
2017-09-26T23:50:08.702Z,15.03
2017-09-26T23:52:36.331Z,15.10
2017-09-26T23:55:03.918Z,15.14
2017-09-26T23:57:31.605Z,15.10
2017-09-26T23:59:59.210Z,15.00
